sensor_id;sensor_type;location;lat;lon;timestamp;pressure;altitude;pressure_sealevel;temperature;humidity
53868;BME280;41577;47.470;19.080;2023-04-09T00:00:01;100847.41;;;4.21;100.00
53868;BME280;41577;47.470;19.080;2023-04-09T00:00:23;100845.59;;;4.22;100.00
53868;BME280;41577;47.470;19.080;2023-04-09T00:00:35;100849.09;;;4.22;100.00
53868;BME280;41577;47.470;19.080;2023-04-09T00:00:48;100850.06;;;4.21;100.00
53868;BME280;41577;47.470;19.080;2023-04-09T00:01:01;100846.47;;;4.22;100.00
53868;BME280;41577;47.470;19.080;2023-04-09T00:01:13;100849.09;;;4.22;100.00
53868;BME280;41577;47.470;19.080;2023-04-09T00:01:26;100851.75;;;4.22;100.00
53868;BME280;41577;47.470;19.080;2023-04-09T00:01:38;100852.56;;;4.23;100.00
53868;BME280;41577;47.470;19.080;2023-04-09T00:01:51;100852.56;;;4.23;100.00
53868;BME280;41577;47.470;19.080;2023-04-09T00:02:03;100850.88;;;4.22;100.00
53868;BME280;41577;47.470;19.080;2023-04-09T00:02:18;100848.63;;;4.17;100.00
53868;BME280;41577;47.470;19.080;2023-04-09T00:02:30;100857.03;;;4.22;100.00
53868;BME280;41577;47.470;19.080;2023-04-09T00:02:42;100849.22;;;4.21;100.00
53868;BME280;41577;47.470;19.080;2023-04-09T00:02:54;100855.22;;;4.23;100.00
53868;BME280;41577;47.470;19.080;2023-04-09T00:03:07;100847.41;;;4.21;100.00
53868;BME280;41577;47.470;19.080;2023-04-09T00:03:19;100855.22;;;4.23;100.00
53868;BME280;41577;47.470;19.080;2023-04-09T00:03:33;100847.28;;;4.23;100.00
53868;BME280;41577;47.470;19.080;2023-04-09T00:03:46;100851.75;;;4.22;100.00
53868;BME280;41577;47.470;19.080;2023-04-09T00:03:59;100852.69;;;4.21;100.00
53868;BME280;41577;47.470;19.080;2023-04-09T00:04:13;100853.53;;;4.22;100.00
53868;BME280;41577;47.470;19.080;2023-04-09T00:04:25;100854.38;;;4.22;100.00
53868;BME280;41577;47.470;19.080;2023-04-09T00:04:37;100851.75;;;4.22;100.00
53868;BME280;41577;47.470;19.080;2023-04-09T00:04:50;100850.88;;;4.22;100.00
53868;BME280;41577;47.470;19.080;2023-04-09T00:05:04;100850.88;;;4.22;100.00
53868;BME280;41577;47.470;19.080;2023-04-09T00:05:16;100852.69;;;4.21;100.00
53868;BME280;41577;47.470;19.080;2023-04-09T00:05:28;100850.06;;;4.21;100.00
53868;BME280;41577;47.470;19.080;2023-04-09T00:05:40;100853.53;;;4.22;100.00
53868;BME280;41577;47.470;19.080;2023-04-09T00:05:52;100856.16;;;4.22;100.00
53868;BME280;41577;47.470;19.080;2023-04-09T00:06:05;100844.78;;;4.21;100.00
53868;BME280;41577;47.470;19.080;2023-04-09T00:06:17;100851.88;;;4.21;100.00
53868;BME280;41577;47.470;19.080;2023-04-09T00:06:30;100860.63;;;4.21;100.00
53868;BME280;41577;47.470;19.080;2023-04-09T00:06:42;100847.41;;;4.21;100.00
53868;BME280;41577;47.470;19.080;2023-04-09T00:06:55;100852.69;;;4.21;100.00
53868;BME280;41577;47.470;19.080;2023-04-09T00:07:07;100851.03;;;4.20;100.00
53868;BME280;41577;47.470;19.080;2023-04-09T00:07:20;100851.03;;;4.20;100.00
53868;BME280;41577;47.470;19.080;2023-04-09T00:07:33;100856.31;;;4.20;100.00
53868;BME280;41577;47.470;19.080;2023-04-09T00:07:45;100854.50;;;4.21;100.00
53868;BME280;41577;47.470;19.080;2023-04-09T00:08:00;100851.03;;;4.20;100.00
53868;BME280;41577;47.470;19.080;2023-04-09T00:08:13;100858.97;;;4.20;100.00
53868;BME280;41577;47.470;19.080;2023-04-09T00:08:25;100856.31;;;4.20;100.00
53868;BME280;41577;47.470;19.080;2023-04-09T00:08:38;100853.69;;;4.20;100.00
53868;BME280;41577;47.470;19.080;2023-04-09T00:08:51;100852.00;;;4.19;100.00
53868;BME280;41577;47.470;19.080;2023-04-09T00:09:03;100852.00;;;4.19;100.00
53868;BME280;41577;47.470;19.080;2023-04-09T00:09:15;100858.97;;;4.20;100.00
53868;BME280;41577;47.470;19.080;2023-04-09T00:09:27;100850.47;;;4.16;100.00
53868;BME280;41577;47.470;19.080;2023-04-09T00:09:39;100858.97;;;4.20;100.00
53868;BME280;41577;47.470;19.080;2023-04-09T00:09:51;100854.63;;;4.19;100.00
53868;BME280;41577;47.470;19.080;2023-04-09T00:10:04;100856.31;;;4.20;100.00
53868;BME280;41577;47.470;19.080;2023-04-09T00:10:17;100851.03;;;4.20;100.00
53868;BME280;41577;47.470;19.080;2023-04-09T00:10:29;100862.56;;;4.19;100.00
53868;BME280;41577;47.470;19.080;2023-04-09T00:10:41;100853.94;;;4.17;100.00
53868;BME280;41577;47.470;19.080;2023-04-09T00:10:53;100855.63;;;4.18;100.00
53868;BME280;41577;47.470;19.080;2023-04-09T00:11:05;100853.94;;;4.17;100.00
53868;BME280;41577;47.470;19.080;2023-04-09T00:11:18;100851.28;;;4.17;100.00
53868;BME280;41577;47.470;19.080;2023-04-09T00:11:31;100856.44;;;4.18;100.00
53868;BME280;41577;47.470;19.080;2023-04-09T00:11:43;100855.63;;;4.18;100.00
53868;BME280;41577;47.470;19.080;2023-04-09T00:11:55;100853.81;;;4.18;100.00
53868;BME280;41577;47.470;19.080;2023-04-09T00:12:08;100852.97;;;4.18;100.00
53868;BME280;41577;47.470;19.080;2023-04-09T00:12:20;100855.63;;;4.18;100.00
53868;BME280;41577;47.470;19.080;2023-04-09T00:12:33;100854.78;;;4.17;100.00
53868;BME280;41577;47.470;19.080;2023-04-09T00:12:45;100853.09;;;4.16;100.00
53868;BME280;41577;47.470;19.080;2023-04-09T00:12:57;100854.91;;;4.16;100.00
53868;BME280;41577;47.470;19.080;2023-04-09T00:13:09;100854.91;;;4.16;100.00
53868;BME280;41577;47.470;19.080;2023-04-09T00:13:22;100850.56;;;4.15;100.00
53868;BME280;41577;47.470;19.080;2023-04-09T00:13:51;100850.72;;;4.13;100.00
53868;BME280;41577;47.470;19.080;2023-04-09T00:14:04;100846.41;;;4.12;100.00
53868;BME280;41577;47.470;19.080;2023-04-09T00:14:16;100848.22;;;4.12;100.00
53868;BME280;41577;47.470;19.080;2023-04-09T00:14:30;100846.56;;;4.11;100.00
53868;BME280;41577;47.470;19.080;2023-04-09T00:14:42;100845.56;;;4.12;100.00
53868;BME280;41577;47.470;19.080;2023-04-09T00:14:55;100846.41;;;4.12;100.00
53868;BME280;41577;47.470;19.080;2023-04-09T00:15:08;100846.56;;;4.11;100.00
53868;BME280;41577;47.470;19.080;2023-04-09T00:15:32;100849.19;;;4.11;100.00
53868;BME280;41577;47.470;19.080;2023-04-09T00:15:44;100851.84;;;4.11;100.00
53868;BME280;41577;47.470;19.080;2023-04-09T00:15:56;100850.97;;;4.10;100.00
53868;BME280;41577;47.470;19.080;2023-04-09T00:16:09;100850.97;;;4.10;100.00
53868;BME280;41577;47.470;19.080;2023-04-09T00:16:22;100846.69;;;4.09;100.00
53868;BME280;41577;47.470;19.080;2023-04-09T00:16:34;100848.50;;;4.09;100.00
53868;BME280;41577;47.470;19.080;2023-04-09T00:16:47;100843.31;;;4.07;100.00
53868;BME280;41577;47.470;19.080;2023-04-09T00:16:59;100858.22;;;4.08;100.00
53868;BME280;41577;47.470;19.080;2023-04-09T00:17:12;100853.78;;;4.09;100.00
53868;BME280;41577;47.470;19.080;2023-04-09T00:17:25;100848.50;;;4.09;100.00
53868;BME280;41577;47.470;19.080;2023-04-09T00:17:37;100849.44;;;4.08;100.00
53868;BME280;41577;47.470;19.080;2023-04-09T00:17:49;100847.06;;;4.05;100.00
53868;BME280;41577;47.470;19.080;2023-04-09T00:18:02;100846.78;;;4.08;100.00
53868;BME280;41577;47.470;19.080;2023-04-09T00:18:16;100852.09;;;4.08;100.00
53868;BME280;41577;47.470;19.080;2023-04-09T00:18:27;100845.97;;;4.07;100.00
53868;BME280;41577;47.470;19.080;2023-04-09T00:18:40;100853.06;;;4.07;100.00
53868;BME280;41577;47.470;19.080;2023-04-09T00:18:52;100847.78;;;4.07;100.00
53868;BME280;41577;47.470;19.080;2023-04-09T00:19:05;100846.09;;;4.06;100.00
53868;BME280;41577;47.470;19.080;2023-04-09T00:19:18;100858.34;;;4.07;100.00
53868;BME280;41577;47.470;19.080;2023-04-09T00:19:30;100847.91;;;4.05;100.00
53868;BME280;41577;47.470;19.080;2023-04-09T00:19:42;100855.84;;;4.05;100.00
53868;BME280;41577;47.470;19.080;2023-04-09T00:19:54;100853.19;;;4.05;100.00
53868;BME280;41577;47.470;19.080;2023-04-09T00:20:08;100857.66;;;4.05;100.00
53868;BME280;41577;47.470;19.080;2023-04-09T00:20:21;100852.34;;;4.05;100.00
53868;BME280;41577;47.470;19.080;2023-04-09T00:20:33;100848.03;;;4.04;100.00
53868;BME280;41577;47.470;19.080;2023-04-09T00:20:44;100850.66;;;4.04;100.00
53868;BME280;41577;47.470;19.080;2023-04-09T00:20:57;100856.94;;;4.03;100.00
53868;BME280;41577;47.470;19.080;2023-04-09T00:21:10;100852.47;;;4.03;100.00
53868;BME280;41577;47.470;19.080;2023-04-09T00:21:22;100849.00;;;4.03;100.00
53868;BME280;41577;47.470;19.080;2023-04-09T00:21:35;100850.81;;;4.02;100.00
53868;BME280;41577;47.470;19.080;2023-04-09T00:21:47;100845.53;;;4.02;100.00
53868;BME280;41577;47.470;19.080;2023-04-09T00:22:00;100849.13;;;4.01;100.00
53868;BME280;41577;47.470;19.080;2023-04-09T00:22:12;100854.28;;;4.03;100.00
53868;BME280;41577;47.470;19.080;2023-04-09T00:22:25;100850.00;;;4.02;100.00
53868;BME280;41577;47.470;19.080;2023-04-09T00:22:37;100853.47;;;4.02;100.00
53868;BME280;41577;47.470;19.080;2023-04-09T00:22:49;100847.34;;;4.02;100.00
53868;BME280;41577;47.470;19.080;2023-04-09T00:23:02;100850.00;;;4.02;100.00
53868;BME280;41577;47.470;19.080;2023-04-09T00:23:15;100850.00;;;4.02;100.00
53868;BME280;41577;47.470;19.080;2023-04-09T00:23:27;100849.13;;;4.01;100.00
53868;BME280;41577;47.470;19.080;2023-04-09T00:23:39;100852.63;;;4.02;100.00
53868;BME280;41577;47.470;19.080;2023-04-09T00:23:52;100853.47;;;4.02;100.00
53868;BME280;41577;47.470;19.080;2023-04-09T00:24:04;100849.28;;;4.00;100.00
53868;BME280;41577;47.470;19.080;2023-04-09T00:24:16;100849.00;;;4.03;100.00
53868;BME280;41577;47.470;19.080;2023-04-09T00:24:29;100845.66;;;4.01;100.00
53868;BME280;41577;47.470;19.080;2023-04-09T00:24:41;100850.00;;;4.02;100.00
53868;BME280;41577;47.470;19.080;2023-04-09T00:24:53;100851.78;;;4.01;100.00
53868;BME280;41577;47.470;19.080;2023-04-09T00:25:07;100848.31;;;4.01;100.00
53868;BME280;41577;47.470;19.080;2023-04-09T00:25:20;100850.94;;;4.01;100.00
53868;BME280;41577;47.470;19.080;2023-04-09T00:25:33;100857.06;;;4.01;100.00
53868;BME280;41577;47.470;19.080;2023-04-09T00:25:45;100850.94;;;4.01;100.00
53868;BME280;41577;47.470;19.080;2023-04-09T00:25:59;100851.78;;;4.01;100.00
53868;BME280;41577;47.470;19.080;2023-04-09T00:26:11;100850.81;;;4.02;100.00
53868;BME280;41577;47.470;19.080;2023-04-09T00:26:24;100840.50;;;3.99;100.00
53868;BME280;41577;47.470;19.080;2023-04-09T00:26:37;100854.41;;;4.01;100.00
53868;BME280;41577;47.470;19.080;2023-04-09T00:26:49;100848.31;;;4.01;100.00
53868;BME280;41577;47.470;19.080;2023-04-09T00:27:02;100839.66;;;3.98;100.00
53868;BME280;41577;47.470;19.080;2023-04-09T00:27:15;100850.81;;;4.02;100.00
53868;BME280;41577;47.470;19.080;2023-04-09T00:27:28;100853.47;;;4.02;100.00
53868;BME280;41577;47.470;19.080;2023-04-09T00:27:40;100850.81;;;4.02;100.00
53868;BME280;41577;47.470;19.080;2023-04-09T00:27:54;100853.59;;;4.01;100.00
53868;BME280;41577;47.470;19.080;2023-04-09T00:28:07;100852.63;;;4.02;100.00
53868;BME280;41577;47.470;19.080;2023-04-09T00:28:19;100851.78;;;4.01;100.00
53868;BME280;41577;47.470;19.080;2023-04-09T00:28:43;100850.00;;;4.02;100.00
53868;BME280;41577;47.470;19.080;2023-04-09T00:28:56;100843.84;;;4.01;100.00
53868;BME280;41577;47.470;19.080;2023-04-09T00:29:08;100850.00;;;4.02;100.00
53868;BME280;41577;47.470;19.080;2023-04-09T00:29:20;100851.78;;;4.01;100.00
53868;BME280;41577;47.470;19.080;2023-04-09T00:29:32;100853.47;;;4.02;100.00
53868;BME280;41577;47.470;19.080;2023-04-09T00:29:45;100851.78;;;4.01;100.00
53868;BME280;41577;47.470;19.080;2023-04-09T00:29:58;100850.00;;;4.02;100.00
53868;BME280;41577;47.470;19.080;2023-04-09T00:30:10;100850.00;;;4.02;100.00
53868;BME280;41577;47.470;19.080;2023-04-09T00:30:23;100846.50;;;4.01;100.00
53868;BME280;41577;47.470;19.080;2023-04-09T00:30:36;100850.94;;;4.01;100.00
53868;BME280;41577;47.470;19.080;2023-04-09T00:30:48;100852.75;;;4.00;100.00
53868;BME280;41577;47.470;19.080;2023-04-09T00:31:02;100848.31;;;4.01;100.00
53868;BME280;41577;47.470;19.080;2023-04-09T00:31:15;100850.94;;;4.01;100.00
53868;BME280;41577;47.470;19.080;2023-04-09T00:31:31;100850.00;;;4.02;100.00
53868;BME280;41577;47.470;19.080;2023-04-09T00:31:43;100852.63;;;4.02;100.00
53868;BME280;41577;47.470;19.080;2023-04-09T00:31:56;100850.81;;;4.02;100.00
53868;BME280;41577;47.470;19.080;2023-04-09T00:32:08;100845.66;;;4.01;100.00
53868;BME280;41577;47.470;19.080;2023-04-09T00:32:21;100850.94;;;4.01;100.00
53868;BME280;41577;47.470;19.080;2023-04-09T00:32:33;100848.41;;;3.99;100.00
53868;BME280;41577;47.470;19.080;2023-04-09T00:32:45;100850.13;;;4.00;100.00
53868;BME280;41577;47.470;19.080;2023-04-09T00:32:58;100845.66;;;4.01;100.00
53868;BME280;41577;47.470;19.080;2023-04-09T00:33:10;100850.94;;;4.01;100.00
53868;BME280;41577;47.470;19.080;2023-04-09T00:33:22;100848.41;;;3.99;100.00
53868;BME280;41577;47.470;19.080;2023-04-09T00:33:35;100853.59;;;4.01;100.00
53868;BME280;41577;47.470;19.080;2023-04-09T00:33:47;100852.63;;;4.02;100.00
53868;BME280;41577;47.470;19.080;2023-04-09T00:34:00;100851.78;;;4.01;100.00
53868;BME280;41577;47.470;19.080;2023-04-09T00:34:12;100845.66;;;4.01;100.00
53868;BME280;41577;47.470;19.080;2023-04-09T00:34:26;100849.13;;;4.01;100.00
53868;BME280;41577;47.470;19.080;2023-04-09T00:34:38;100852.63;;;4.02;100.00
53868;BME280;41577;47.470;19.080;2023-04-09T00:34:51;100848.31;;;4.01;100.00
53868;BME280;41577;47.470;19.080;2023-04-09T00:35:04;100851.78;;;4.01;100.00
53868;BME280;41577;47.470;19.080;2023-04-09T00:35:16;100851.78;;;4.01;100.00
53868;BME280;41577;47.470;19.080;2023-04-09T00:35:29;100851.66;;;4.03;100.00
53868;BME280;41577;47.470;19.080;2023-04-09T00:35:42;100852.63;;;4.02;100.00
53868;BME280;41577;47.470;19.080;2023-04-09T00:35:55;100856.94;;;4.03;100.00
53868;BME280;41577;47.470;19.080;2023-04-09T00:36:07;100851.66;;;4.03;100.00
53868;BME280;41577;47.470;19.080;2023-04-09T00:36:19;100848.19;;;4.02;100.00
53868;BME280;41577;47.470;19.080;2023-04-09T00:36:31;100842.06;;;4.02;100.00
53868;BME280;41577;47.470;19.080;2023-04-09T00:36:44;100849.00;;;4.03;100.00
53868;BME280;41577;47.470;19.080;2023-04-09T00:36:56;100848.03;;;4.04;100.00
53868;BME280;41577;47.470;19.080;2023-04-09T00:37:08;100850.66;;;4.04;100.00
53868;BME280;41577;47.470;19.080;2023-04-09T00:37:20;100850.66;;;4.04;100.00
53868;BME280;41577;47.470;19.080;2023-04-09T00:37:33;100849.84;;;4.03;100.00
53868;BME280;41577;47.470;19.080;2023-04-09T00:37:45;100843.59;;;4.04;100.00
53868;BME280;41577;47.470;19.080;2023-04-09T00:37:57;100851.53;;;4.04;100.00
53868;BME280;41577;47.470;19.080;2023-04-09T00:38:09;100847.06;;;4.05;100.00
53868;BME280;41577;47.470;19.080;2023-04-09T00:38:22;100849.72;;;4.05;100.00
53868;BME280;41577;47.470;19.080;2023-04-09T00:38:34;100847.06;;;4.05;100.00
53868;BME280;41577;47.470;19.080;2023-04-09T00:38:46;100846.25;;;4.04;100.00
53868;BME280;41577;47.470;19.080;2023-04-09T00:39:01;100848.88;;;4.04;100.00
53868;BME280;41577;47.470;19.080;2023-04-09T00:39:13;100842.75;;;4.04;100.00
53868;BME280;41577;47.470;19.080;2023-04-09T00:39:26;100844.44;;;4.05;100.00
53868;BME280;41577;47.470;19.080;2023-04-09T00:39:38;100842.63;;;4.05;100.00
53868;BME280;41577;47.470;19.080;2023-04-09T00:39:50;100847.91;;;4.05;100.00
53868;BME280;41577;47.470;19.080;2023-04-09T00:40:03;100842.63;;;4.05;100.00
53868;BME280;41577;47.470;19.080;2023-04-09T00:40:15;100840.97;;;4.04;100.00
53868;BME280;41577;47.470;19.080;2023-04-09T00:40:28;100844.44;;;4.05;100.00
53868;BME280;41577;47.470;19.080;2023-04-09T00:40:41;100843.59;;;4.04;100.00
53868;BME280;41577;47.470;19.080;2023-04-09T00:40:53;100845.25;;;4.05;100.00
53868;BME280;41577;47.470;19.080;2023-04-09T00:41:06;100842.50;;;4.07;100.00
53868;BME280;41577;47.470;19.080;2023-04-09T00:41:18;100847.06;;;4.05;100.00
53868;BME280;41577;47.470;19.080;2023-04-09T00:41:30;100843.44;;;4.06;100.00
53868;BME280;41577;47.470;19.080;2023-04-09T00:41:43;100849.59;;;4.06;100.00
53868;BME280;41577;47.470;19.080;2023-04-09T00:41:56;100846.09;;;4.06;100.00
53868;BME280;41577;47.470;19.080;2023-04-09T00:42:08;100846.09;;;4.06;100.00
53868;BME280;41577;47.470;19.080;2023-04-09T00:42:21;100838.31;;;4.04;100.00
53868;BME280;41577;47.470;19.080;2023-04-09T00:42:35;100851.25;;;4.07;100.00
53868;BME280;41577;47.470;19.080;2023-04-09T00:42:48;100843.59;;;4.04;100.00
53868;BME280;41577;47.470;19.080;2023-04-09T00:43:00;100851.38;;;4.06;100.00
53868;BME280;41577;47.470;19.080;2023-04-09T00:43:13;100841.78;;;4.05;100.00
53868;BME280;41577;47.470;19.080;2023-04-09T00:43:25;100847.78;;;4.07;100.00
53868;BME280;41577;47.470;19.080;2023-04-09T00:43:37;100847.91;;;4.05;100.00
53868;BME280;41577;47.470;19.080;2023-04-09T00:43:49;100849.72;;;4.05;100.00
53868;BME280;41577;47.470;19.080;2023-04-09T00:44:02;100842.63;;;4.05;100.00
53868;BME280;41577;47.470;19.080;2023-04-09T00:44:14;100842.63;;;4.05;100.00
53868;BME280;41577;47.470;19.080;2023-04-09T00:44:27;100847.91;;;4.05;100.00
53868;BME280;41577;47.470;19.080;2023-04-09T00:44:39;100847.06;;;4.05;100.00
53868;BME280;41577;47.470;19.080;2023-04-09T00:44:51;100845.25;;;4.05;100.00
53868;BME280;41577;47.470;19.080;2023-04-09T00:45:05;100846.25;;;4.04;100.00
53868;BME280;41577;47.470;19.080;2023-04-09T00:45:17;100847.91;;;4.05;100.00
53868;BME280;41577;47.470;19.080;2023-04-09T00:45:29;100846.09;;;4.06;100.00
53868;BME280;41577;47.470;19.080;2023-04-09T00:45:42;100844.44;;;4.05;100.00
53868;BME280;41577;47.470;19.080;2023-04-09T00:45:54;100843.44;;;4.06;100.00
53868;BME280;41577;47.470;19.080;2023-04-09T00:46:06;100847.06;;;4.05;100.00
53868;BME280;41577;47.470;19.080;2023-04-09T00:46:19;100850.53;;;4.05;100.00
53868;BME280;41577;47.470;19.080;2023-04-09T00:46:31;100849.59;;;4.06;100.00
53868;BME280;41577;47.470;19.080;2023-04-09T00:46:43;100847.78;;;4.07;100.00
53868;BME280;41577;47.470;19.080;2023-04-09T00:46:58;100843.44;;;4.06;100.00
53868;BME280;41577;47.470;19.080;2023-04-09T00:47:10;100846.09;;;4.06;100.00
53868;BME280;41577;47.470;19.080;2023-04-09T00:47:23;100841.78;;;4.05;100.00
53868;BME280;41577;47.470;19.080;2023-04-09T00:47:36;100846.09;;;4.06;100.00
53868;BME280;41577;47.470;19.080;2023-04-09T00:47:48;100846.09;;;4.06;100.00
53868;BME280;41577;47.470;19.080;2023-04-09T00:48:01;100847.91;;;4.05;100.00
53868;BME280;41577;47.470;19.080;2023-04-09T00:48:14;100843.44;;;4.06;100.00
53868;BME280;41577;47.470;19.080;2023-04-09T00:48:27;100846.94;;;4.06;100.00
53868;BME280;41577;47.470;19.080;2023-04-09T00:48:40;100845.13;;;4.07;100.00
53868;BME280;41577;47.470;19.080;2023-04-09T00:48:52;100847.78;;;4.07;100.00
53868;BME280;41577;47.470;19.080;2023-04-09T00:49:05;100843.44;;;4.06;100.00
53868;BME280;41577;47.470;19.080;2023-04-09T00:49:18;100838.03;;;4.07;100.00
53868;BME280;41577;47.470;19.080;2023-04-09T00:49:31;100841.66;;;4.06;100.00
53868;BME280;41577;47.470;19.080;2023-04-09T00:49:44;100838.03;;;4.07;100.00
53868;BME280;41577;47.470;19.080;2023-04-09T00:49:57;100836.22;;;4.08;100.00
53868;BME280;41577;47.470;19.080;2023-04-09T00:50:10;100843.31;;;4.07;100.00
53868;BME280;41577;47.470;19.080;2023-04-09T00:50:23;100841.66;;;4.06;100.00
53868;BME280;41577;47.470;19.080;2023-04-09T00:50:35;100841.50;;;4.08;100.00
53868;BME280;41577;47.470;19.080;2023-04-09T00:50:47;100845.13;;;4.07;100.00
53868;BME280;41577;47.470;19.080;2023-04-09T00:51:00;100838.88;;;4.08;100.00
53868;BME280;41577;47.470;19.080;2023-04-09T00:51:13;100844.16;;;4.08;100.00
53868;BME280;41577;47.470;19.080;2023-04-09T00:51:26;100841.50;;;4.08;100.00
53868;BME280;41577;47.470;19.080;2023-04-09T00:51:38;100838.03;;;4.07;100.00
53868;BME280;41577;47.470;19.080;2023-04-09T00:51:51;100841.50;;;4.08;100.00
53868;BME280;41577;47.470;19.080;2023-04-09T00:52:04;100841.50;;;4.08;100.00
53868;BME280;41577;47.470;19.080;2023-04-09T00:52:16;100839.84;;;4.07;100.00
53868;BME280;41577;47.470;19.080;2023-04-09T00:52:28;100844.16;;;4.08;100.00
53868;BME280;41577;47.470;19.080;2023-04-09T00:52:41;100840.69;;;4.07;100.00
53868;BME280;41577;47.470;19.080;2023-04-09T00:52:53;100842.38;;;4.08;100.00
53868;BME280;41577;47.470;19.080;2023-04-09T00:53:06;100838.88;;;4.08;100.00
53868;BME280;41577;47.470;19.080;2023-04-09T00:53:19;100844.31;;;4.06;100.00
53868;BME280;41577;47.470;19.080;2023-04-09T00:53:31;100838.03;;;4.07;100.00
53868;BME280;41577;47.470;19.080;2023-04-09T00:53:44;100839.84;;;4.07;100.00
53868;BME280;41577;47.470;19.080;2023-04-09T00:53:57;100837.22;;;4.07;100.00
53868;BME280;41577;47.470;19.080;2023-04-09T00:54:10;100839.03;;;4.06;100.00
53868;BME280;41577;47.470;19.080;2023-04-09T00:54:23;100832.16;;;4.04;100.00
53868;BME280;41577;47.470;19.080;2023-04-09T00:54:35;100845.25;;;4.05;100.00
53868;BME280;41577;47.470;19.080;2023-04-09T00:54:48;100843.44;;;4.06;100.00
53868;BME280;41577;47.470;19.080;2023-04-09T00:55:02;100838.31;;;4.04;100.00
53868;BME280;41577;47.470;19.080;2023-04-09T00:55:15;100844.44;;;4.05;100.00
53868;BME280;41577;47.470;19.080;2023-04-09T00:55:29;100843.44;;;4.06;100.00
53868;BME280;41577;47.470;19.080;2023-04-09T00:55:42;100844.44;;;4.05;100.00
53868;BME280;41577;47.470;19.080;2023-04-09T00:55:54;100837.47;;;4.04;100.00
53868;BME280;41577;47.470;19.080;2023-04-09T00:56:07;100844.44;;;4.05;100.00
53868;BME280;41577;47.470;19.080;2023-04-09T00:56:21;100840.97;;;4.04;100.00
53868;BME280;41577;47.470;19.080;2023-04-09T00:56:35;100838.44;;;4.03;100.00
53868;BME280;41577;47.470;19.080;2023-04-09T00:56:48;100844.56;;;4.03;100.00
53868;BME280;41577;47.470;19.080;2023-04-09T00:57:00;100838.44;;;4.03;100.00
53868;BME280;41577;47.470;19.080;2023-04-09T00:57:13;100836.63;;;4.03;100.00
53868;BME280;41577;47.470;19.080;2023-04-09T00:57:26;100844.56;;;4.03;100.00
53868;BME280;41577;47.470;19.080;2023-04-09T00:57:38;100839.41;;;4.02;100.00
53868;BME280;41577;47.470;19.080;2023-04-09T00:57:50;100846.38;;;4.03;100.00
53868;BME280;41577;47.470;19.080;2023-04-09T00:58:02;100842.91;;;4.02;100.00
53868;BME280;41577;47.470;19.080;2023-04-09T00:58:15;100839.41;;;4.02;100.00
53868;BME280;41577;47.470;19.080;2023-04-09T00:58:27;100845.53;;;4.02;100.00
53868;BME280;41577;47.470;19.080;2023-04-09T00:58:40;100843.72;;;4.03;100.00
53868;BME280;41577;47.470;19.080;2023-04-09T00:58:52;100838.56;;;4.01;100.00
53868;BME280;41577;47.470;19.080;2023-04-09T00:59:05;100842.19;;;4.00;100.00
53868;BME280;41577;47.470;19.080;2023-04-09T00:59:17;100843.00;;;4.01;100.00
53868;BME280;41577;47.470;19.080;2023-04-09T00:59:30;100842.06;;;4.02;100.00
53868;BME280;41577;47.470;19.080;2023-04-09T00:59:42;100847.34;;;4.02;100.00
53868;BME280;41577;47.470;19.080;2023-04-09T00:59:55;100840.25;;;4.02;100.00
53868;BME280;41577;47.470;19.080;2023-04-09T01:00:08;100835.09;;;4.01;100.00
53868;BME280;41577;47.470;19.080;2023-04-09T01:00:20;100838.56;;;4.01;100.00
53868;BME280;41577;47.470;19.080;2023-04-09T01:00:33;100851.78;;;4.01;100.00
53868;BME280;41577;47.470;19.080;2023-04-09T01:00:45;100843.00;;;4.01;100.00
53868;BME280;41577;47.470;19.080;2023-04-09T01:00:58;100845.66;;;4.01;100.00
53868;BME280;41577;47.470;19.080;2023-04-09T01:01:10;100838.56;;;4.01;100.00
53868;BME280;41577;47.470;19.080;2023-04-09T01:01:23;100836.78;;;4.02;100.00
53868;BME280;41577;47.470;19.080;2023-04-09T01:01:35;100844.72;;;4.02;100.00
53868;BME280;41577;47.470;19.080;2023-04-09T01:01:47;100843.84;;;4.01;100.00
53868;BME280;41577;47.470;19.080;2023-04-09T01:02:00;100844.72;;;4.02;100.00
53868;BME280;41577;47.470;19.080;2023-04-09T01:02:12;100848.19;;;4.02;100.00
53868;BME280;41577;47.470;19.080;2023-04-09T01:02:26;100834.97;;;4.02;100.00
53868;BME280;41577;47.470;19.080;2023-04-09T01:02:39;100836.78;;;4.02;100.00
53868;BME280;41577;47.470;19.080;2023-04-09T01:02:52;100842.06;;;4.02;100.00
53868;BME280;41577;47.470;19.080;2023-04-09T01:03:07;100844.72;;;4.02;100.00
53868;BME280;41577;47.470;19.080;2023-04-09T01:03:19;100844.72;;;4.02;100.00
53868;BME280;41577;47.470;19.080;2023-04-09T01:03:32;100844.72;;;4.02;100.00
53868;BME280;41577;47.470;19.080;2023-04-09T01:03:44;100846.50;;;4.01;100.00
53868;BME280;41577;47.470;19.080;2023-04-09T01:03:57;100836.06;;;4.00;100.00
53868;BME280;41577;47.470;19.080;2023-04-09T01:04:10;100847.34;;;4.02;100.00
53868;BME280;41577;47.470;19.080;2023-04-09T01:04:23;100837.72;;;4.01;100.00
53868;BME280;41577;47.470;19.080;2023-04-09T01:04:40;100842.06;;;4.02;100.00
53868;BME280;41577;47.470;19.080;2023-04-09T01:04:54;100847.34;;;4.02;100.00
53868;BME280;41577;47.470;19.080;2023-04-09T01:05:06;100849.13;;;4.01;100.00
53868;BME280;41577;47.470;19.080;2023-04-09T01:05:18;100846.50;;;4.01;100.00
53868;BME280;41577;47.470;19.080;2023-04-09T01:05:38;100843.72;;;4.03;100.00
53868;BME280;41577;47.470;19.080;2023-04-09T01:06:00;100843.84;;;4.01;100.00
53868;BME280;41577;47.470;19.080;2023-04-09T01:06:21;100844.72;;;4.02;100.00